RJBB/KIX METAR and TAF weather

Enter ICAO airport designator
Station Type Date Time Source
RJBB METAR 2018/12/10 01:30 UTC NOAA

RJBB 100130Z 06006KT 9999 FEW025 BKN/// 07/01 Q1031 NOSIG


Station Type Date Time Source
RJBB Decoded METAR 2018/12/10 01:30 UTC NOAA

Kansai International Airport, Japan (RJBB) 34-25N 135-15E 8M
Dec 09, 2018 - 08:30 PM EST / 2018.12.10 0130 UTC
Wind: from the ENE (060 degrees) at 7 MPH (6 KT):0
Visibility: greater than 7 mile(s):0
Sky conditions: mostly cloudy
Temperature: 44 F (7 C)
Dew Point: 33 F (1 C)
Relative Humidity: 65%
Pressure (altimeter): 30.45 in. Hg (1031 hPa)
ob: RJBB 100130Z 06006KT 9999 FEW025 BKN/// 07/01 Q1031 NOSIG
cycle: 1

Station Type Date Time Source
RJBB TAF 2018/12/09 18:08 UTC NOAA

TAF RJBB 091705Z 0918/1100 06008KT 9999 FEW025 BKN040


Example: see airport list